createdAt,value
2022-08-10T00:01:10.622Z,20.50
2022-08-10T00:03:43.492Z,20.50
2022-08-10T00:06:13.647Z,20.44
2022-08-10T00:08:43.987Z,20.41
2022-08-10T00:11:15.477Z,20.35
2022-08-10T00:13:47.312Z,20.29
2022-08-10T00:16:17.540Z,20.24
2022-08-10T00:18:50.347Z,20.24
2022-08-10T00:21:20.553Z,20.24
2022-08-10T00:23:50.762Z,20.21
2022-08-10T00:26:20.952Z,20.17
2022-08-10T00:28:52.355Z,20.14
2022-08-10T00:31:22.760Z,20.08
2022-08-10T00:33:55.554Z,20.03
2022-08-10T00:36:25.789Z,20.02
2022-08-10T00:38:55.906Z,20.00
2022-08-10T00:41:26.064Z,19.93
2022-08-10T00:43:56.207Z,19.93
2022-08-10T00:46:26.469Z,19.90
2022-08-10T00:49:00.696Z,19.83
2022-08-10T00:51:40.192Z,19.79
2022-08-10T00:54:24.524Z,19.73
2022-08-10T00:57:16.584Z,19.67
2022-08-10T00:59:58.504Z,19.62
2022-08-10T01:02:32.519Z,19.61
2022-08-10T01:05:09.682Z,19.59
2022-08-10T01:07:56.716Z,19.54
2022-08-10T01:10:43.712Z,19.51
2022-08-10T01:13:21.270Z,19.46
2022-08-10T01:16:00.938Z,19.43
2022-08-10T01:18:43.499Z,19.37
2022-08-10T01:21:57.392Z,19.32
2022-08-10T01:25:24.123Z,19.25
2022-08-10T01:28:05.701Z,19.17
2022-08-10T01:30:42.313Z,19.15
2022-08-10T01:33:28.803Z,19.11
2022-08-10T01:36:11.546Z,19.08
2022-08-10T01:38:46.250Z,19.00
2022-08-10T01:41:25.996Z,18.95
2022-08-10T01:44:03.593Z,18.94
2022-08-10T01:46:39.139Z,18.97
2022-08-10T01:49:10.668Z,18.96
2022-08-10T01:51:47.368Z,18.91
2022-08-10T01:54:22.768Z,18.89
2022-08-10T01:56:59.004Z,18.87
2022-08-10T01:59:35.685Z,18.88
2022-08-10T02:02:12.695Z,18.87
2022-08-10T02:04:49.336Z,18.80
2022-08-10T02:07:25.743Z,18.77
2022-08-10T02:09:59.629Z,18.74
2022-08-10T02:12:34.522Z,18.70
2022-08-10T02:15:10.400Z,18.70
2022-08-10T02:17:59.431Z,18.70
2022-08-10T02:20:37.066Z,18.67
2022-08-10T02:23:12.453Z,18.65
2022-08-10T02:25:44.775Z,18.63
2022-08-10T02:28:27.520Z,18.62
2022-08-10T02:31:06.971Z,18.56
2022-08-10T02:33:57.348Z,18.55
2022-08-10T02:36:34.005Z,18.53
2022-08-10T02:39:08.183Z,18.54
2022-08-10T02:45:14.339Z,18.50
2022-08-10T02:45:25.766Z,18.47
2022-08-10T02:47:52.311Z,18.47
2022-08-10T02:50:30.700Z,18.45
2022-08-10T02:53:08.596Z,18.42
2022-08-10T02:56:04.965Z,18.40
2022-08-10T02:58:41.390Z,18.37
2022-08-10T03:01:17.346Z,18.33
2022-08-10T03:03:51.834Z,18.33
2022-08-10T03:06:29.605Z,18.31
2022-08-10T03:09:00.778Z,18.30
2022-08-10T03:12:35.660Z,18.28
2022-08-10T03:14:25.904Z,18.24
2022-08-10T03:16:58.671Z,18.22
2022-08-10T03:20:35.511Z,18.20
2022-08-10T03:22:23.878Z,18.16
2022-08-10T03:24:56.505Z,18.15
2022-08-10T03:27:27.960Z,18.13
2022-08-10T03:30:28.728Z,18.14
2022-08-10T03:32:50.552Z,18.10
2022-08-10T03:35:24.854Z,18.11
2022-08-10T03:37:59.681Z,18.07
2022-08-10T03:40:46.165Z,18.05
2022-08-10T03:43:20.990Z,18.04
2022-08-10T03:45:56.824Z,18.03
2022-08-10T03:48:44.772Z,18.02
2022-08-10T03:51:20.565Z,18.06
2022-08-10T03:54:05.663Z,18.04
2022-08-10T03:56:42.076Z,18.09
2022-08-10T03:59:14.846Z,18.13
2022-08-10T04:02:41.502Z,18.12
2022-08-10T04:04:36.994Z,18.15
2022-08-10T04:07:08.544Z,18.15
2022-08-10T04:09:43.132Z,18.18
2022-08-10T04:12:25.180Z,18.22
2022-08-10T04:14:55.340Z,18.29
2022-08-10T04:18:03.362Z,18.30
2022-08-10T04:20:23.163Z,18.36
2022-08-10T04:22:56.348Z,18.38
2022-08-10T04:25:30.374Z,18.40
2022-08-10T04:28:03.202Z,18.44
2022-08-10T04:30:35.336Z,18.45
2022-08-10T04:33:08.691Z,18.50
2022-08-10T04:35:40.415Z,18.49
2022-08-10T04:38:12.952Z,18.49
2022-08-10T04:40:46.378Z,18.50
2022-08-10T04:43:16.792Z,18.52
2022-08-10T04:45:51.687Z,18.52
2022-08-10T04:48:42.450Z,18.55
2022-08-10T04:51:19.531Z,18.55
2022-08-10T04:54:03.748Z,18.56
2022-08-10T04:56:41.222Z,18.56
2022-08-10T04:59:13.765Z,18.57
2022-08-10T05:02:28.434Z,18.55
2022-08-10T05:04:38.970Z,18.52
2022-08-10T05:07:16.878Z,18.51
2022-08-10T05:10:04.735Z,18.58
2022-08-10T05:12:40.812Z,18.65
2022-08-10T05:15:13.971Z,18.76
2022-08-10T05:18:08.415Z,18.81
2022-08-10T05:20:36.341Z,18.91
2022-08-10T05:23:07.444Z,19.04
2022-08-10T05:25:38.276Z,19.19
2022-08-10T05:28:11.229Z,19.36
2022-08-10T05:30:41.531Z,19.52
2022-08-10T05:33:11.780Z,19.58
2022-08-10T05:35:57.672Z,19.70
2022-08-10T05:38:30.350Z,19.89
2022-08-10T05:41:00.745Z,20.08
2022-08-10T05:43:33.660Z,20.20
2022-08-10T05:46:17.006Z,20.28
2022-08-10T05:48:59.423Z,20.35
2022-08-10T05:51:32.235Z,20.46
2022-08-10T05:54:06.484Z,20.55
2022-08-10T05:56:56.527Z,20.68
2022-08-10T06:00:10.794Z,20.82
2022-08-10T06:02:35.032Z,20.99
2022-08-10T06:05:13.205Z,21.18
2022-08-10T06:07:49.834Z,21.34
2022-08-10T06:10:32.687Z,21.50
2022-08-10T06:13:29.634Z,21.64
2022-08-10T06:16:13.629Z,21.73
2022-08-10T06:18:45.398Z,21.82
2022-08-10T06:21:16.553Z,21.98
2022-08-10T06:23:47.736Z,22.07
2022-08-10T06:26:21.416Z,22.16
2022-08-10T06:29:02.807Z,22.30
2022-08-10T06:31:48.031Z,22.46
2022-08-10T06:34:25.826Z,22.55
2022-08-10T06:36:58.400Z,22.71
2022-08-10T06:39:36.789Z,22.84
2022-08-10T06:42:20.280Z,23.01
2022-08-10T06:45:01.085Z,23.30
2022-08-10T06:47:44.753Z,23.43
2022-08-10T06:50:44.979Z,23.58
2022-08-10T06:53:20.364Z,23.76
2022-08-10T06:55:57.306Z,23.87
2022-08-10T06:58:32.323Z,24.05
2022-08-10T07:01:05.571Z,24.23
2022-08-10T07:03:46.108Z,24.48
2022-08-10T07:06:19.950Z,24.73
2022-08-10T07:08:52.139Z,24.90
2022-08-10T07:11:24.226Z,25.01
2022-08-10T07:14:14.626Z,25.26
2022-08-10T07:16:50.851Z,25.51
2022-08-10T07:19:26.867Z,25.74
2022-08-10T07:21:57.971Z,25.94
2022-08-10T07:24:33.037Z,26.14
2022-08-10T07:27:04.707Z,26.32
2022-08-10T07:29:53.942Z,26.51
2022-08-10T07:32:26.715Z,26.75
2022-08-10T07:35:00.900Z,26.95
2022-08-10T07:37:33.737Z,27.08
2022-08-10T07:40:07.777Z,27.15
2022-08-10T07:42:45.143Z,27.37
2022-08-10T07:45:16.389Z,27.43
2022-08-10T07:47:55.252Z,27.64
2022-08-10T07:50:35.932Z,27.79
2022-08-10T07:53:07.811Z,27.94
2022-08-10T07:56:04.785Z,28.19
2022-08-10T07:58:33.506Z,28.25
2022-08-10T08:01:04.437Z,28.39
2022-08-10T08:03:36.096Z,28.46
2022-08-10T08:06:12.004Z,28.56
2022-08-10T08:08:45.846Z,28.79
2022-08-10T08:11:26.262Z,28.96
2022-08-10T08:13:58.429Z,29.17
2022-08-10T08:16:29.328Z,29.35
2022-08-10T08:24:05.896Z,29.91
2022-08-10T08:24:46.509Z,30.19
2022-08-10T08:27:19.859Z,30.63
2022-08-10T08:29:53.865Z,30.99
2022-08-10T08:32:28.697Z,31.67
2022-08-10T08:35:02.147Z,32.41
2022-08-10T08:38:32.172Z,33.13
2022-08-10T08:40:33.642Z,33.85
2022-08-10T08:43:31.363Z,34.61
2022-08-10T08:46:33.376Z,35.15
2022-08-10T08:50:08.234Z,35.92
2022-08-10T08:52:59.397Z,36.43
2022-08-10T08:56:02.903Z,36.89
2022-08-10T08:58:50.782Z,37.27
2022-08-10T09:01:44.496Z,37.81
2022-08-10T09:04:43.878Z,37.57
2022-08-10T09:08:23.016Z,38.20
2022-08-10T09:11:04.281Z,38.53
2022-08-10T09:13:42.574Z,36.07
2022-08-10T09:16:28.022Z,34.51
2022-08-10T09:19:06.490Z,33.51
2022-08-10T09:22:13.095Z,32.72
2022-08-10T09:24:51.678Z,32.27
2022-08-10T09:27:35.232Z,33.33
2022-08-10T09:30:10.735Z,33.89
2022-08-10T09:36:14.962Z,33.12
2022-08-10T09:36:25.995Z,32.19
2022-08-10T09:38:55.731Z,31.62
2022-08-10T09:41:43.053Z,31.39
2022-08-10T09:44:31.026Z,31.44
2022-08-10T09:47:23.088Z,31.26
2022-08-10T09:50:25.691Z,31.27
2022-08-10T09:53:09.021Z,31.25
2022-08-10T09:56:17.634Z,30.99
2022-08-10T09:59:29.308Z,30.71
2022-08-10T10:02:03.457Z,30.46
2022-08-10T10:04:46.831Z,30.29
2022-08-10T10:07:29.620Z,30.14
2022-08-10T10:10:06.726Z,29.89
2022-08-10T10:12:48.002Z,29.71
2022-08-10T10:15:33.599Z,29.53
2022-08-10T10:18:36.670Z,29.38
2022-08-10T10:21:12.270Z,29.25
2022-08-10T10:24:20.282Z,29.14
2022-08-10T10:26:59.205Z,29.01
2022-08-10T10:29:57.318Z,28.99
2022-08-10T10:32:45.149Z,28.98
2022-08-10T10:35:27.118Z,29.00
2022-08-10T10:38:02.722Z,29.16
2022-08-10T10:40:50.847Z,29.27
2022-08-10T10:43:42.587Z,29.40
2022-08-10T10:46:32.702Z,29.51
2022-08-10T10:49:09.501Z,29.52
2022-08-10T10:51:53.014Z,29.52
2022-08-10T10:54:35.201Z,29.56
2022-08-10T10:57:15.126Z,29.69
2022-08-10T10:59:57.783Z,29.73
2022-08-10T11:02:48.741Z,29.82
2022-08-10T11:05:30.870Z,30.07
2022-08-10T11:08:14.531Z,30.23
2022-08-10T11:10:52.688Z,30.49
2022-08-10T11:14:24.951Z,30.55
2022-08-10T11:16:31.733Z,30.89
2022-08-10T11:19:16.580Z,31.00
2022-08-10T11:21:58.462Z,30.90
2022-08-10T11:24:49.826Z,30.98
2022-08-10T11:27:34.531Z,30.92
2022-08-10T11:30:10.730Z,30.86
2022-08-10T11:32:54.419Z,30.81
2022-08-10T11:35:35.290Z,30.92
2022-08-10T11:38:31.668Z,31.11
2022-08-10T11:42:10.323Z,30.92
2022-08-10T11:44:23.100Z,30.86
2022-08-10T11:47:04.687Z,31.02
2022-08-10T11:49:42.761Z,30.99
2022-08-10T11:52:19.880Z,31.55
2022-08-10T11:54:56.341Z,31.86
2022-08-10T11:57:53.366Z,32.38
2022-08-10T12:00:24.717Z,34.34
2022-08-10T12:03:05.757Z,36.40
2022-08-10T12:05:48.338Z,36.27
2022-08-10T12:10:03.451Z,35.69
2022-08-10T12:11:24.653Z,37.28
2022-08-10T12:14:20.704Z,36.68
2022-08-10T12:16:55.695Z,38.02
2022-08-10T12:19:58.725Z,37.32
2022-08-10T12:22:34.126Z,36.45
2022-08-10T12:25:09.502Z,36.15
2022-08-10T12:27:45.092Z,35.50
2022-08-10T12:30:21.036Z,35.07
2022-08-10T12:33:03.701Z,34.61
2022-08-10T12:35:56.062Z,34.50
2022-08-10T12:38:43.589Z,34.40
2022-08-10T12:41:43.635Z,34.03
2022-08-10T12:44:21.141Z,33.56
2022-08-10T12:47:10.361Z,33.34
2022-08-10T12:50:26.726Z,33.13
2022-08-10T12:53:00.275Z,34.51
2022-08-10T12:55:40.595Z,36.85
2022-08-10T12:59:00.333Z,38.32
2022-08-10T13:01:17.275Z,37.61
2022-08-10T13:04:23.099Z,36.57
2022-08-10T13:06:51.658Z,35.98
2022-08-10T13:09:25.998Z,35.60
2022-08-10T13:12:35.135Z,35.34
2022-08-10T13:14:59.265Z,34.52
2022-08-10T13:17:40.024Z,34.29
2022-08-10T13:20:24.240Z,34.16
2022-08-10T13:22:58.113Z,34.15
2022-08-10T13:25:34.974Z,35.74
2022-08-10T13:28:37.489Z,34.95
2022-08-10T13:31:11.468Z,34.04
2022-08-10T13:34:40.260Z,33.34
2022-08-10T13:36:46.702Z,32.76
2022-08-10T13:39:21.307Z,32.41
2022-08-10T13:41:54.305Z,32.26
2022-08-10T13:44:38.372Z,32.13
2022-08-10T13:47:10.335Z,32.06
2022-08-10T13:49:50.297Z,32.02
2022-08-10T13:52:26.702Z,32.04
2022-08-10T13:55:00.718Z,32.44
2022-08-10T13:57:33.322Z,32.71
2022-08-10T14:00:34.760Z,33.15
2022-08-10T14:03:04.421Z,35.14
2022-08-10T14:05:38.959Z,35.50
2022-08-10T14:08:16.963Z,34.36
2022-08-10T14:11:04.097Z,33.61
2022-08-10T14:13:45.900Z,33.13
2022-08-10T14:16:17.270Z,32.73
2022-08-10T14:18:48.579Z,32.36
2022-08-10T14:21:19.271Z,32.10
2022-08-10T14:23:54.071Z,31.67
2022-08-10T14:26:28.326Z,31.45
2022-08-10T14:29:06.870Z,31.38
2022-08-10T14:32:00.377Z,31.10
2022-08-10T14:36:16.051Z,31.07
2022-08-10T14:37:38.226Z,30.94
2022-08-10T14:40:17.753Z,30.82
2022-08-10T14:42:53.755Z,30.69
2022-08-10T14:45:29.116Z,30.56
2022-08-10T14:48:04.064Z,30.51
2022-08-10T14:50:36.324Z,30.69
2022-08-10T14:53:12.146Z,32.64
2022-08-10T14:55:57.777Z,34.31
2022-08-10T14:58:36.050Z,35.55
2022-08-10T15:01:11.013Z,36.49
2022-08-10T15:04:00.931Z,37.83
2022-08-10T15:06:41.866Z,38.65
2022-08-10T15:09:19.401Z,39.26
2022-08-10T15:12:15.856Z,39.54
2022-08-10T15:14:49.918Z,38.37
2022-08-10T15:17:28.702Z,37.44
2022-08-10T15:20:14.407Z,36.49
2022-08-10T15:22:50.941Z,34.99
2022-08-10T15:25:25.615Z,34.12
2022-08-10T15:28:06.381Z,33.54
2022-08-10T15:30:43.156Z,32.98
2022-08-10T15:33:59.334Z,32.57
2022-08-10T15:36:37.040Z,32.24
2022-08-10T15:40:05.414Z,31.94
2022-08-10T15:42:08.685Z,31.67
2022-08-10T15:44:45.996Z,31.30
2022-08-10T15:47:23.362Z,31.03
2022-08-10T15:50:01.899Z,30.88
2022-08-10T15:52:39.797Z,30.80
2022-08-10T15:55:41.466Z,30.64
2022-08-10T15:58:38.774Z,30.40
2022-08-10T16:02:03.975Z,30.28
2022-08-10T16:04:13.522Z,30.25
2022-08-10T16:06:50.351Z,30.22
2022-08-10T16:10:10.491Z,30.19
2022-08-10T16:12:29.596Z,30.21
2022-08-10T16:15:07.918Z,30.13
2022-08-10T16:17:54.449Z,30.05
2022-08-10T16:20:31.548Z,29.92
2022-08-10T16:23:06.977Z,29.85
2022-08-10T16:25:47.870Z,29.79
2022-08-10T16:28:24.600Z,29.75
2022-08-10T16:30:58.270Z,29.74
2022-08-10T16:33:53.071Z,29.70
2022-08-10T16:36:26.634Z,29.68
2022-08-10T16:38:58.674Z,29.65
2022-08-10T16:42:04.506Z,29.60
2022-08-10T16:44:23.262Z,29.56
2022-08-10T16:46:54.661Z,29.54
2022-08-10T16:49:29.372Z,29.48
2022-08-10T16:52:00.437Z,29.45
2022-08-10T16:54:32.408Z,29.51
2022-08-10T16:57:09.042Z,29.55
2022-08-10T16:59:42.353Z,29.56
2022-08-10T17:02:20.525Z,29.51
2022-08-10T17:04:55.810Z,29.40
2022-08-10T17:07:30.878Z,29.41
2022-08-10T17:10:07.892Z,29.33
2022-08-10T17:12:42.169Z,29.31
2022-08-10T17:15:13.921Z,29.30
2022-08-10T17:17:50.147Z,29.28
2022-08-10T17:20:30.247Z,29.21
2022-08-10T17:23:06.694Z,29.13
2022-08-10T17:25:49.016Z,29.17
2022-08-10T17:28:35.886Z,29.09
2022-08-10T17:31:24.258Z,29.05
2022-08-10T17:34:18.131Z,28.98
2022-08-10T17:37:01.324Z,28.97
2022-08-10T17:39:38.607Z,28.88
2022-08-10T17:42:12.536Z,28.79
2022-08-10T17:44:48.491Z,28.78
2022-08-10T17:47:19.656Z,28.76
2022-08-10T17:49:51.342Z,28.69
2022-08-10T17:52:29.202Z,28.59
2022-08-10T17:55:04.430Z,28.48
2022-08-10T17:57:40.284Z,28.39
2022-08-10T18:00:15.480Z,28.30
2022-08-10T18:02:50.014Z,28.21
2022-08-10T18:05:21.719Z,28.13
2022-08-10T18:07:57.469Z,28.06
2022-08-10T18:10:29.503Z,27.96
2022-08-10T18:13:01.221Z,27.89
2022-08-10T18:15:33.978Z,27.78
2022-08-10T18:18:06.577Z,27.67
2022-08-10T18:20:40.701Z,27.55
2022-08-10T18:23:14.648Z,27.40
2022-08-10T18:25:47.572Z,27.26
2022-08-10T18:28:22.269Z,27.16
2022-08-10T18:30:55.868Z,27.06
2022-08-10T18:33:31.517Z,26.97
2022-08-10T18:36:06.103Z,26.88
2022-08-10T18:38:43.176Z,26.79
2022-08-10T18:41:19.819Z,26.69
2022-08-10T18:44:07.071Z,26.55
2022-08-10T18:46:49.498Z,26.40
2022-08-10T18:49:29.659Z,26.29
2022-08-10T18:52:05.010Z,26.18
2022-08-10T18:54:47.372Z,26.07
2022-08-10T18:57:36.007Z,25.95
2022-08-10T19:00:13.529Z,25.82
2022-08-10T19:03:25.272Z,25.69
2022-08-10T19:06:14.932Z,25.50
2022-08-10T19:08:59.306Z,25.40
2022-08-10T19:11:54.654Z,25.29
2022-08-10T19:14:37.871Z,25.19
2022-08-10T19:17:18.643Z,25.06
2022-08-10T19:20:02.401Z,24.96
2022-08-10T19:22:44.889Z,24.87
2022-08-10T19:26:39.360Z,24.76
2022-08-10T19:28:31.015Z,24.68
2022-08-10T19:31:09.266Z,24.61
2022-08-10T19:34:11.392Z,24.52
2022-08-10T19:36:55.533Z,24.45
2022-08-10T19:39:50.849Z,24.41
2022-08-10T19:42:31.613Z,24.33
2022-08-10T19:45:56.192Z,24.21
2022-08-10T19:48:22.817Z,24.16
2022-08-10T19:51:00.814Z,24.08
2022-08-10T19:53:44.108Z,24.03
2022-08-10T19:56:36.948Z,23.95
2022-08-10T20:00:16.852Z,23.90
2022-08-10T20:02:25.176Z,23.84
2022-08-10T20:05:06.477Z,23.78
2022-08-10T20:07:45.313Z,23.74
2022-08-10T20:10:28.348Z,23.66
2022-08-10T20:13:12.104Z,23.60
2022-08-10T20:15:49.169Z,23.50
2022-08-10T20:18:29.263Z,23.44
2022-08-10T20:21:06.920Z,23.35
2022-08-10T20:23:39.038Z,23.32
2022-08-10T20:26:21.096Z,23.24
2022-08-10T20:29:07.735Z,23.17
2022-08-10T20:31:44.543Z,23.13
2022-08-10T20:34:25.085Z,23.08
2022-08-10T20:37:03.279Z,23.04
2022-08-10T20:39:51.418Z,23.00
2022-08-10T20:42:26.151Z,22.98
2022-08-10T20:45:07.184Z,22.93
2022-08-10T20:47:53.713Z,22.88
2022-08-10T20:50:38.920Z,22.79
2022-08-10T20:53:15.432Z,22.70
2022-08-10T20:55:54.954Z,22.61
2022-08-10T20:59:10.141Z,22.54
2022-08-10T21:02:06.819Z,22.54
2022-08-10T21:04:55.593Z,22.54
2022-08-10T21:08:08.232Z,22.45
2022-08-10T21:11:00.454Z,22.37
2022-08-10T21:14:06.399Z,22.29
2022-08-10T21:16:52.272Z,22.24
2022-08-10T21:19:53.804Z,22.21
2022-08-10T21:22:29.547Z,22.17
2022-08-10T21:25:07.740Z,22.13
2022-08-10T21:28:03.442Z,22.10
2022-08-10T21:30:57.745Z,22.05
2022-08-10T21:33:35.840Z,22.00
2022-08-10T21:36:12.920Z,21.95
2022-08-10T21:38:51.685Z,21.91
2022-08-10T21:41:58.227Z,21.85
2022-08-10T21:45:18.701Z,21.80
2022-08-10T21:48:30.281Z,21.74
2022-08-10T21:51:24.017Z,21.69
2022-08-10T21:54:19.953Z,21.68
2022-08-10T21:57:21.615Z,21.68
2022-08-10T22:00:13.760Z,21.65
2022-08-10T22:02:59.377Z,21.57
2022-08-10T22:05:47.703Z,21.55
2022-08-10T22:08:34.677Z,21.50
2022-08-10T22:11:20.262Z,21.49
2022-08-10T22:14:09.488Z,21.42
2022-08-10T22:17:02.738Z,21.36
2022-08-10T22:19:50.512Z,21.27
2022-08-10T22:22:44.802Z,21.35
2022-08-10T22:25:54.017Z,21.29
2022-08-10T22:28:37.155Z,21.26
2022-08-10T22:31:43.666Z,21.24
2022-08-10T22:35:04.376Z,21.21
2022-08-10T22:37:58.817Z,21.09
2022-08-10T22:40:50.611Z,21.09
2022-08-10T22:43:43.124Z,21.05
2022-08-10T22:46:35.849Z,21.07
2022-08-10T22:49:03.616Z,21.09
2022-08-10T22:51:55.562Z,21.03
2022-08-10T22:54:57.403Z,21.00
2022-08-10T22:57:40.218Z,21.00
2022-08-10T23:00:16.885Z,20.97
2022-08-10T23:02:58.321Z,20.92
2022-08-10T23:05:36.655Z,20.88
2022-08-10T23:08:30.073Z,20.89
2022-08-10T23:11:06.745Z,20.88
2022-08-10T23:13:42.012Z,20.81
2022-08-10T23:16:33.741Z,20.77
2022-08-10T23:19:11.169Z,20.75
2022-08-10T23:22:03.365Z,20.77
2022-08-10T23:24:40.610Z,20.79
2022-08-10T23:27:38.087Z,20.78
2022-08-10T23:30:10.880Z,20.76
2022-08-10T23:32:51.375Z,20.74
2022-08-10T23:36:30.535Z,20.74
2022-08-10T23:38:25.242Z,20.75
2022-08-10T23:40:59.130Z,20.79
2022-08-10T23:43:53.429Z,20.75
2022-08-10T23:46:26.402Z,20.74
2022-08-10T23:48:59.750Z,20.73
2022-08-10T23:51:38.778Z,20.75
2022-08-10T23:54:27.936Z,20.76
2022-08-10T23:57:02.278Z,20.77
2022-08-10T23:59:35.534Z,20.79
